Moscow, OH (45153)

6:31 AM EDT on August 05, 2015 (GMT -0400)
Mt Auburn | | Change Station
CLOSE
Current Station
Personal Weather Station
Location: Foster, KY
Elevation: 834 ft
Nearby Weather Stations

Elev 834 ft 38.80 °N, 84.25 °W | Updated 4 seconds ago

Partly Cloudy
Partly Cloudy
67.2 °F
Feels Like 67.2 °F
N
1.0
Wind Variable Wind from South
Gusts 4.0 mph

Today
High -- | Low -- °F
--% Chance of Precip.
Yesterday
High -- | Low -- °F
Precip. -- in
6:41 AM 8:43 PM
Waning Gibbous, 68% visible
Pressure 30.05 in
Visibility 10.0 miles
Clouds Clear
Dew Point 65 °F
Humidity 93%
Rainfall 0.00 in
Snow Depth Not available.
UV 0 out of 12
Pollen 6.60 out of 12
Air Quality Not available.
Flu Activity Not available.
METAR KI69 051005Z AUTO 36000KT 10SM CLR 18/18 A3005 RMK AO1

More Conditions Fewer Conditions

Pressure 30.05 in
Visibility 10.0 miles
Clouds Clear
Dew Point 65 °F
Humidity 93%
Rainfall 0.00 in
Snow Depth Not available.
UV 0 out of 12
Pollen 6.60 out of 12
Air Quality Not available.
Flu Activity Not available.
METAR KI69 051005Z AUTO 36000KT 10SM CLR 18/18 A3005 RMK AO1

More Conditions Fewer Conditions

10-Day Weather Forecast

×

Almanac

Astronomy

Aug. 05, 2015 Rise Set
Actual Time
Civil Twilight
Nautical Twilight
Astronomical Twilight
Moon
Length of Visible Light
Length of Day
Tomorrow will be .
, % of the Moon is Illuminated

Today's Extremes

State Highs State Lows

Community

WunderPhotos

Upload Photos

1,844,115 photos uploaded!

WunderBlogs® & News

Nearby

Air Quality

  Air Quality AQ Index Pollutant
Not available.

Snow Depth

Station Depth Elevation

Earthquake Activity

City Distance Mag. Time & Date
Minimum magnitude displayed is 2.5.

Coastal Water Temperatures

Place Temperature

Stations

Nearby Weather Stations

Station Location Temp. Windchill Dew Point Humidity Wind Precip. Elev Updated Type